Time;durP1;ratioP1;P1;durP2;ratioP2;P2;SDS_P1;SDS_P2;PMS_P1;PMS_P2;Temp;Humidity;BMP_temperature;BMP_pressure;BME280_temperature;BME280_humidity;BME280_pressure;Samples;Min_cycle;Max_cycle;Signal;HPM_P1;HPM_P2
2021/06/25 00:02:20;;;;;;;1.40;0.90;;;;;;;;;;5077067;28;20502;-48
2021/06/25 00:04:45;;;;;;;1.95;1.20;;;;;;;;;;5076468;28;20025;-48
2021/06/25 00:07:10;;;;;;;1.95;0.90;;;;;;;;;;5076271;28;20048;-46
2021/06/25 00:09:37;;;;;;;3.47;1.67;;;;;;;;;;5077233;28;20044;-47
2021/06/25 00:12:03;;;;;;;2.90;0.88;;;;;;;;;;5077080;28;20163;-47
2021/06/25 00:14:28;;;;;;;1.70;1.25;;;;;;;;;;5079117;28;20460;-47
2021/06/25 00:16:53;;;;;;;2.70;1.00;;;;;;;;;;5073251;28;20383;-47
2021/06/25 00:19:19;;;;;;;3.33;1.90;;;;;;;;;;5071569;28;20505;-47
2021/06/25 00:21:44;;;;;;;0.82;0.65;;;;;;;;;;5078736;28;20020;-47
2021/06/25 00:24:10;;;;;;;12.57;1.65;;;;;;;;;;5080139;28;20077;-46
2021/06/25 00:26:35;;;;;;;5.13;1.02;;;;;;;;;;5076859;28;20020;-46
2021/06/25 00:29:01;;;;;;;1.65;1.05;;;;;;;;;;5076486;28;20024;-49
2021/06/25 00:31:26;;;;;;;1.15;0.95;;;;;;;;;;5074971;28;20020;-46
2021/06/25 00:33:52;;;;;;;0.65;0.57;;;;;;;;;;5078271;28;20020;-49
2021/06/25 00:36:17;;;;;;;2.35;1.23;;;;;;;;;;5077251;28;20032;-47
2021/06/25 00:38:42;;;;;;;8.48;0.95;;;;;;;;;;5076863;28;20032;-49
2021/06/25 00:41:08;;;;;;;1.52;0.95;;;;;;;;;;5077397;28;20531;-47
2021/06/25 00:43:33;;;;;;;6.55;1.67;;;;;;;;;;5077262;28;20028;-47
2021/06/25 00:45:58;;;;;;;1.90;1.40;;;;;;;;;;5074862;28;20043;-48
2021/06/25 00:48:24;;;;;;;6.57;1.58;;;;;;;;;;5076456;28;20039;-49
2021/06/25 00:50:49;;;;;;;1.33;0.80;;;;;;;;;;5073922;28;20397;-50
2021/06/25 00:53:14;;;;;;;1.02;0.68;;;;;;;;;;5073909;28;20008;-46
2021/06/25 00:55:43;;;;;;;1.85;0.68;;;;;;;;;;5079830;28;20020;-46
2021/06/25 00:58:12;;;;;;;3.03;1.27;;;;;;;;;;5073438;28;20036;-47
2021/06/25 01:00:37;;;;;;;3.15;1.27;;;;;;;;;;5076931;28;20027;-46
2021/06/25 01:03:03;;;;;;;1.73;1.23;;;;;;;;;;5075047;28;20032;-45
2021/06/25 01:05:28;;;;;;;4.03;0.88;;;;;;;;;;5076439;28;20024;-47
2021/06/25 01:07:53;;;;;;;5.00;0.90;;;;;;;;;;5074991;28;20446;-46
2021/06/25 01:10:19;;;;;;;0.75;0.50;;;;;;;;;;5078432;28;20387;-48
2021/06/25 01:12:44;;;;;;;2.47;0.98;;;;;;;;;;5076697;28;20099;-50
2021/06/25 01:15:10;;;;;;;3.13;1.83;;;;;;;;;;5074487;28;20130;-48
2021/06/25 01:17:38;;;;;;;1.65;0.75;;;;;;;;;;5076491;28;20027;-48
2021/06/25 01:20:06;;;;;;;3.05;0.90;;;;;;;;;;5075524;28;20039;-46
2021/06/25 01:22:35;;;;;;;1.13;0.70;;;;;;;;;;5075362;28;20020;-49
2021/06/25 01:25:21;;;;;;;3.60;1.17;;;;;;;;;;5073827;28;20065;-48
2021/06/25 01:27:56;;;;;;;2.15;1.42;;;;;;;;;;5073059;28;20025;-48
2021/06/25 01:30:23;;;;;;;4.03;0.93;;;;;;;;;;5074762;28;20044;-47
2021/06/25 01:32:48;;;;;;;2.97;0.68;;;;;;;;;;5076395;28;20028;-48
2021/06/25 01:35:14;;;;;;;0.60;0.55;;;;;;;;;;5073935;28;20115;-48
2021/06/25 01:37:45;;;;;;;1.77;1.00;;;;;;;;;;5075357;28;20483;-47
2021/06/25 01:40:14;;;;;;;1.77;0.82;;;;;;;;;;5077054;28;20742;-48
2021/06/25 01:42:43;;;;;;;2.42;0.77;;;;;;;;;;5074462;28;20128;-46
2021/06/25 01:45:19;;;;;;;8.45;1.20;;;;;;;;;;5076420;28;20089;-48
2021/06/25 01:47:45;;;;;;;4.80;0.77;;;;;;;;;;5078478;28;20097;-46
2021/06/25 01:50:12;;;;;;;0.98;0.63;;;;;;;;;;5074857;28;20021;-47
2021/06/25 01:52:42;;;;;;;9.98;1.75;;;;;;;;;;5077438;28;20008;-47
2021/06/25 01:55:08;;;;;;;1.05;0.80;;;;;;;;;;5073261;28;20116;-51
2021/06/25 01:57:33;;;;;;;1.75;0.80;;;;;;;;;;5078068;28;20111;-47
2021/06/25 01:59:59;;;;;;;2.90;1.13;;;;;;;;;;5077830;28;20055;-46
2021/06/25 02:02:24;;;;;;;1.33;0.98;;;;;;;;;;5074651;28;20483;-50
2021/06/25 02:04:50;;;;;;;9.05;1.13;;;;;;;;;;5071936;28;20479;-47
2021/06/25 02:07:15;;;;;;;1.10;0.70;;;;;;;;;;5070164;28;20048;-47
2021/06/25 02:09:40;;;;;;;2.28;0.95;;;;;;;;;;5075297;28;20013;-48
2021/06/25 02:12:06;;;;;;;2.75;1.00;;;;;;;;;;5073673;28;20020;-50
2021/06/25 02:14:31;;;;;;;0.98;0.45;;;;;;;;;;5075295;28;20028;-46
2021/06/25 02:16:57;;;;;;;6.80;1.15;;;;;;;;;;5075041;28;20027;-49
2021/06/25 02:19:22;;;;;;;1.88;1.48;;;;;;;;;;5073469;28;20480;-46
2021/06/25 02:21:48;;;;;;;1.75;0.98;;;;;;;;;;5074447;28;20032;-46
2021/06/25 02:24:13;;;;;;;2.05;0.73;;;;;;;;;;5074591;28;20033;-46
2021/06/25 02:26:38;;;;;;;1.42;0.88;;;;;;;;;;5078978;28;20201;-47
2021/06/25 02:29:04;;;;;;;1.00;0.85;;;;;;;;;;5075480;28;20048;-48
2021/06/25 02:31:29;;;;;;;0.50;0.40;;;;;;;;;;5075032;28;20115;-47
2021/06/25 02:33:54;;;;;;;2.05;0.90;;;;;;;;;;5072692;28;20574;-50
2021/06/25 02:36:20;;;;;;;2.78;1.27;;;;;;;;;;5073229;28;20388;-48
2021/06/25 02:38:45;;;;;;;1.30;0.60;;;;;;;;;;5070880;28;20759;-48
2021/06/25 02:41:10;;;;;;;2.05;0.98;;;;;;;;;;5076765;28;20554;-48
2021/06/25 02:43:36;;;;;;;1.55;0.90;;;;;;;;;;5073261;28;20032;-47
2021/06/25 02:46:01;;;;;;;3.13;0.90;;;;;;;;;;5075373;28;20463;-47
2021/06/25 02:48:26;;;;;;;1.75;0.90;;;;;;;;;;5074680;28;20511;-51
2021/06/25 02:50:52;;;;;;;1.52;0.95;;;;;;;;;;5074306;28;20431;-50
2021/06/25 02:53:17;;;;;;;2.90;1.60;;;;;;;;;;5073775;28;20028;-48
2021/06/25 02:55:51;;;;;;;2.85;1.50;;;;;;;;;;5077624;28;20024;-49
2021/06/25 02:58:20;;;;;;;2.47;1.00;;;;;;;;;;5072191;28;20023;-49
2021/06/25 03:00:46;;;;;;;1.05;0.63;;;;;;;;;;5070399;28;20704;-50
2021/06/25 03:03:12;;;;;;;3.10;0.60;;;;;;;;;;5071553;28;20074;-47
2021/06/25 03:05:37;;;;;;;1.92;1.00;;;;;;;;;;5076172;28;20085;-50
2021/06/25 03:08:02;;;;;;;0.85;0.43;;;;;;;;;;5079254;28;20122;-51
2021/06/25 03:10:28;;;;;;;1.48;0.65;;;;;;;;;;5076515;28;20036;-49
2021/06/25 03:12:53;;;;;;;0.65;0.50;;;;;;;;;;5081608;28;20017;-47
2021/06/25 03:15:18;;;;;;;2.42;1.25;;;;;;;;;;5074390;28;20098;-48
2021/06/25 03:17:43;;;;;;;1.98;0.95;;;;;;;;;;5078813;28;20519;-48
2021/06/25 03:20:09;;;;;;;1.50;0.73;;;;;;;;;;5077433;28;20021;-48
2021/06/25 03:22:35;;;;;;;2.17;0.80;;;;;;;;;;5074989;28;20268;-48
2021/06/25 03:25:00;;;;;;;1.35;0.75;;;;;;;;;;5076445;28;20043;-49
2021/06/25 03:27:25;;;;;;;1.73;0.57;;;;;;;;;;5079579;28;20596;-48
2021/06/25 03:29:51;;;;;;;2.08;0.90;;;;;;;;;;5078876;28;20019;-48
2021/06/25 03:32:16;;;;;;;6.85;1.10;;;;;;;;;;5076934;28;20018;-47
2021/06/25 03:34:42;;;;;;;3.60;0.75;;;;;;;;;;5074009;28;20316;-46
2021/06/25 03:37:08;;;;;;;2.30;1.15;;;;;;;;;;5077567;28;20631;-50
2021/06/25 03:39:33;;;;;;;1.65;0.80;;;;;;;;;;5076506;28;20518;-46
2021/06/25 03:41:58;;;;;;;0.75;0.47;;;;;;;;;;5077303;28;20091;-47
2021/06/25 03:44:24;;;;;;;0.85;0.65;;;;;;;;;;5074036;28;20028;-47
2021/06/25 03:46:49;;;;;;;2.33;1.38;;;;;;;;;;5074822;28;20114;-48
2021/06/25 03:49:14;;;;;;;1.00;0.82;;;;;;;;;;5079898;28;20073;-49
2021/06/25 03:51:40;;;;;;;1.40;1.20;;;;;;;;;;5076426;28;20113;-48
2021/06/25 03:54:05;;;;;;;1.90;1.35;;;;;;;;;;5076591;28;20547;-47
2021/06/25 03:56:30;;;;;;;4.38;2.10;;;;;;;;;;5078301;28;20022;-47
2021/06/25 03:58:56;;;;;;;1.63;1.20;;;;;;;;;;5075866;28;20023;-46
2021/06/25 04:01:21;;;;;;;1.38;1.00;;;;;;;;;;5071238;28;20016;-47
2021/06/25 04:03:47;;;;;;;5.45;1.85;;;;;;;;;;5078120;28;20047;-49
2021/06/25 04:06:12;;;;;;;1.42;0.85;;;;;;;;;;5074345;28;20029;-48
2021/06/25 04:08:38;;;;;;;3.70;1.48;;;;;;;;;;5076855;28;20047;-47
2021/06/25 04:11:04;;;;;;;4.72;1.65;;;;;;;;;;5078204;28;20032;-46
2021/06/25 04:13:29;;;;;;;1.52;1.23;;;;;;;;;;5076176;28;20020;-46
2021/06/25 04:15:55;;;;;;;1.52;0.95;;;;;;;;;;5080567;28;20020;-47
2021/06/25 04:18:21;;;;;;;3.28;2.00;;;;;;;;;;5077276;28;20039;-48
2021/06/25 04:20:46;;;;;;;2.38;1.23;;;;;;;;;;5075191;28;20037;-50
2021/06/25 04:23:12;;;;;;;6.15;2.35;;;;;;;;;;5076707;28;20020;-47
2021/06/25 04:25:37;;;;;;;1.90;0.85;;;;;;;;;;5077450;28;20503;-48
2021/06/25 04:28:03;;;;;;;1.48;0.63;;;;;;;;;;5075389;28;20049;-46
2021/06/25 04:30:28;;;;;;;4.57;3.35;;;;;;;;;;5079507;28;20052;-46
2021/06/25 04:32:57;;;;;;;4.25;1.42;;;;;;;;;;5075916;28;20387;-51
2021/06/25 04:35:22;;;;;;;6.50;2.67;;;;;;;;;;5077699;28;20024;-49
2021/06/25 04:37:47;;;;;;;3.00;1.60;;;;;;;;;;5074856;28;20016;-46
2021/06/25 04:40:13;;;;;;;4.85;2.38;;;;;;;;;;5072354;28;20586;-47
2021/06/25 04:42:39;;;;;;;1.42;1.17;;;;;;;;;;5076900;28;20119;-47
2021/06/25 04:45:04;;;;;;;6.38;4.00;;;;;;;;;;5075797;28;20426;-48
2021/06/25 04:47:30;;;;;;;2.83;2.25;;;;;;;;;;5075949;28;20027;-47
2021/06/25 04:49:55;;;;;;;4.30;2.67;;;;;;;;;;5077428;28;20424;-49
2021/06/25 04:52:20;;;;;;;3.05;1.80;;;;;;;;;;5075214;28;20666;-48
2021/06/25 04:54:46;;;;;;;4.80;1.92;;;;;;;;;;5074430;28;20526;-50
2021/06/25 04:57:11;;;;;;;2.70;2.00;;;;;;;;;;5074402;28;20048;-47
2021/06/25 04:59:36;;;;;;;8.23;2.33;;;;;;;;;;5075216;28;20530;-46
2021/06/25 05:02:02;;;;;;;3.35;1.63;;;;;;;;;;5078064;28;20028;-48
2021/06/25 05:04:27;;;;;;;5.93;3.75;;;;;;;;;;5075865;28;20118;-49
2021/06/25 05:06:53;;;;;;;6.00;4.88;;;;;;;;;;5075109;28;20044;-46
2021/06/25 05:09:18;;;;;;;7.63;4.35;;;;;;;;;;5079958;28;20028;-46
2021/06/25 05:11:43;;;;;;;4.82;2.33;;;;;;;;;;5077573;28;20021;-47
2021/06/25 05:14:09;;;;;;;10.10;2.05;;;;;;;;;;5074648;28;20024;-48
2021/06/25 05:16:34;;;;;;;9.05;2.58;;;;;;;;;;5075775;28;20032;-47
2021/06/25 05:19:00;;;;;;;5.95;2.42;;;;;;;;;;5074349;28;20111;-48
2021/06/25 05:21:25;;;;;;;17.42;5.55;;;;;;;;;;5071180;28;20069;-48
2021/06/25 05:23:51;;;;;;;17.30;14.82;;;;;;;;;;5072281;28;20617;-44
2021/06/25 05:26:16;;;;;;;21.55;10.77;;;;;;;;;;5074270;28;20024;-43
2021/06/25 05:28:41;;;;;;;13.18;6.60;;;;;;;;;;5073460;28;20020;-45
2021/06/25 05:31:07;;;;;;;14.77;6.50;;;;;;;;;;5072306;28;20032;-43
2021/06/25 05:33:32;;;;;;;7.38;4.15;;;;;;;;;;5070709;28;20025;-45
2021/06/25 05:35:58;;;;;;;6.32;2.63;;;;;;;;;;5075307;28;20084;-45
2021/06/25 05:38:23;;;;;;;6.45;2.63;;;;;;;;;;5079334;28;20634;-44
2021/06/25 05:40:48;;;;;;;3.50;2.40;;;;;;;;;;5074157;28;20028;-44
2021/06/25 05:43:14;;;;;;;10.82;8.05;;;;;;;;;;5074485;28;20028;-46
2021/06/25 05:45:39;;;;;;;4.22;3.20;;;;;;;;;;5076966;28;20031;-45
2021/06/25 05:48:05;;;;;;;3.60;2.75;;;;;;;;;;5076818;28;20205;-43
2021/06/25 05:50:31;;;;;;;7.82;1.75;;;;;;;;;;5075390;28;20094;-45
2021/06/25 05:52:56;;;;;;;6.40;3.65;;;;;;;;;;5072894;28;20471;-44
2021/06/25 05:55:22;;;;;;;4.63;3.17;;;;;;;;;;5070926;28;20036;-44
2021/06/25 05:57:48;;;;;;;10.73;4.55;;;;;;;;;;5075240;28;20066;-46
2021/06/25 06:00:13;;;;;;;7.72;5.00;;;;;;;;;;5076906;28;20517;-43
2021/06/25 06:02:39;;;;;;;22.98;16.88;;;;;;;;;;5072683;28;20028;-43
2021/06/25 06:05:05;;;;;;;37.03;12.15;;;;;;;;;;5078038;28;20031;-46
2021/06/25 06:07:30;;;;;;;10.57;5.57;;;;;;;;;;5074916;28;20052;-45
2021/06/25 06:09:55;;;;;;;11.45;5.97;;;;;;;;;;5072212;28;20028;-45
2021/06/25 06:12:21;;;;;;;7.75;4.82;;;;;;;;;;5074026;28;20024;-44
2021/06/25 06:14:46;;;;;;;15.05;6.10;;;;;;;;;;5071604;28;20028;-44
2021/06/25 06:17:12;;;;;;;11.93;5.18;;;;;;;;;;5074513;28;20107;-45
2021/06/25 06:19:43;;;;;;;7.78;5.07;;;;;;;;;;5075897;28;20036;-45
2021/06/25 06:33:13;;;;;;;4.88;3.30;;;;;;;;;;5075953;28;20026;-39
2021/06/25 06:35:39;;;;;;;3.28;2.03;;;;;;;;;;5074859;28;20039;-44
2021/06/25 06:38:05;;;;;;;5.55;3.15;;;;;;;;;;5071318;28;20020;-45
2021/06/25 06:40:30;;;;;;;6.95;3.42;;;;;;;;;;5069481;28;20035;-45
2021/06/25 06:42:56;;;;;;;4.00;1.83;;;;;;;;;;5075470;28;20343;-43
2021/06/25 06:45:21;;;;;;;2.30;1.20;;;;;;;;;;5074066;28;20468;-44
2021/06/25 06:47:47;;;;;;;2.50;1.23;;;;;;;;;;5074503;28;20024;-52
2021/06/25 06:50:12;;;;;;;7.72;2.28;;;;;;;;;;5074178;28;20460;-44
2021/06/25 06:52:40;;;;;;;3.67;1.10;;;;;;;;;;5076940;28;20467;-42
2021/06/25 06:55:05;;;;;;;3.58;2.20;;;;;;;;;;5077125;28;20051;-44
2021/06/25 06:57:30;;;;;;;2.53;1.42;;;;;;;;;;5074064;28;20059;-42
2021/06/25 06:59:56;;;;;;;5.18;2.10;;;;;;;;;;5074354;28;20594;-45
2021/06/25 07:02:21;;;;;;;2.42;1.35;;;;;;;;;;5071227;28;20035;-44
2021/06/25 07:04:46;;;;;;;2.33;1.55;;;;;;;;;;5069013;28;20170;-45
2021/06/25 07:07:12;;;;;;;2.30;1.67;;;;;;;;;;5075384;28;20919;-43
2021/06/25 07:09:37;;;;;;;2.38;1.40;;;;;;;;;;5074019;28;20039;-44
2021/06/25 07:12:02;;;;;;;1.63;0.90;;;;;;;;;;5075779;28;20020;-43
2021/06/25 07:14:28;;;;;;;3.20;1.38;;;;;;;;;;5074746;28;20176;-45
2021/06/25 07:16:53;;;;;;;2.47;1.25;;;;;;;;;;5071915;28;20061;-43
2021/06/25 07:19:18;;;;;;;6.03;1.33;;;;;;;;;;5075660;28;20633;-45
2021/06/25 07:21:44;;;;;;;3.70;0.90;;;;;;;;;;5073412;28;20025;-43
2021/06/25 07:24:09;;;;;;;5.43;1.33;;;;;;;;;;5072115;28;20023;-43
2021/06/25 07:26:34;;;;;;;7.68;2.17;;;;;;;;;;5075343;28;20044;-43
2021/06/25 07:29:00;;;;;;;3.20;1.27;;;;;;;;;;5073006;28;20025;-43
2021/06/25 07:31:25;;;;;;;2.67;1.25;;;;;;;;;;5072433;28;20048;-43
2021/06/25 07:33:50;;;;;;;1.63;1.33;;;;;;;;;;5077312;28;22292;-42
2021/06/25 07:36:17;;;;;;;1.70;0.90;;;;;;;;;;5074562;28;20506;-44
2021/06/25 07:38:42;;;;;;;2.40;1.27;;;;;;;;;;5076660;28;20112;-43
2021/06/25 07:41:08;;;;;;;0.98;0.30;;;;;;;;;;5072935;28;20028;-43
2021/06/25 07:43:33;;;;;;;0.82;0.65;;;;;;;;;;5072643;28;20472;-43
2021/06/25 07:45:58;;;;;;;2.47;1.08;;;;;;;;;;5077663;28;20025;-44
2021/06/25 07:48:24;;;;;;;2.13;1.35;;;;;;;;;;5075208;28;20099;-44
2021/06/25 07:50:49;;;;;;;12.13;1.80;;;;;;;;;;5079408;28;20019;-43
2021/06/25 07:53:14;;;;;;;6.05;2.17;;;;;;;;;;5078011;28;20051;-45
2021/06/25 07:55:43;;;;;;;2.17;1.38;;;;;;;;;;5075598;28;20040;-44
2021/06/25 07:58:10;;;;;;;5.72;1.92;;;;;;;;;;5075161;28;20021;-44
2021/06/25 08:00:35;;;;;;;4.75;1.77;;;;;;;;;;5076172;28;20024;-46
2021/06/25 08:03:00;;;;;;;3.35;1.17;;;;;;;;;;5074906;28;20093;-43
2021/06/25 08:05:25;;;;;;;2.08;1.42;;;;;;;;;;5072290;28;20062;-44
2021/06/25 08:07:51;;;;;;;10.02;4.47;;;;;;;;;;5079718;28;20044;-44
2021/06/25 08:10:16;;;;;;;2.60;1.40;;;;;;;;;;5076140;28;20062;-44
2021/06/25 08:12:41;;;;;;;2.65;1.58;;;;;;;;;;5073315;28;20058;-45
2021/06/25 08:15:07;;;;;;;4.10;1.42;;;;;;;;;;5075418;28;20085;-44
2021/06/25 08:17:32;;;;;;;5.88;1.63;;;;;;;;;;5074565;28;20119;-43
2021/06/25 08:19:57;;;;;;;1.77;1.33;;;;;;;;;;5074821;28;20143;-45
2021/06/25 08:22:23;;;;;;;2.05;1.08;;;;;;;;;;5078013;28;20028;-46
2021/06/25 08:24:48;;;;;;;1.80;1.38;;;;;;;;;;5076220;28;20033;-44
2021/06/25 08:27:14;;;;;;;5.60;1.02;;;;;;;;;;5076052;28;20072;-48
2021/06/25 08:29:39;;;;;;;5.07;1.77;;;;;;;;;;5076943;28;20027;-45
2021/06/25 08:32:05;;;;;;;1.42;0.50;;;;;;;;;;5075503;28;20050;-45
2021/06/25 08:34:30;;;;;;;3.63;1.52;;;;;;;;;;5076795;28;20523;-43
2021/06/25 08:36:55;;;;;;;1.42;0.55;;;;;;;;;;5075182;28;20024;-46
2021/06/25 08:39:21;;;;;;;2.53;1.23;;;;;;;;;;5075246;28;20097;-47
2021/06/25 08:41:46;;;;;;;1.42;0.93;;;;;;;;;;5074916;28;20067;-45
2021/06/25 08:44:12;;;;;;;2.25;1.02;;;;;;;;;;5075290;28;20583;-49
2021/06/25 08:46:37;;;;;;;1.70;1.13;;;;;;;;;;5074520;28;20078;-46
2021/06/25 08:49:04;;;;;;;2.60;0.90;;;;;;;;;;5074830;28;20384;-44
2021/06/25 08:51:33;;;;;;;3.58;1.30;;;;;;;;;;5073519;28;20027;-46
2021/06/25 08:53:58;;;;;;;2.13;1.70;;;;;;;;;;5074588;28;20382;-44
2021/06/25 08:56:23;;;;;;;0.90;0.50;;;;;;;;;;5072097;28;20038;-44
2021/06/25 08:58:49;;;;;;;2.63;1.98;;;;;;;;;;5074541;28;20034;-46
2021/06/25 09:01:15;;;;;;;3.80;1.10;;;;;;;;;;5078644;28;20473;-45
2021/06/25 09:03:41;;;;;;;9.63;2.13;;;;;;;;;;5072573;28;20059;-46
2021/06/25 09:06:10;;;;;;;1.42;0.80;;;;;;;;;;5075474;28;20059;-45
2021/06/25 09:08:36;;;;;;;2.63;1.08;;;;;;;;;;5075075;28;20145;-64
2021/06/25 09:11:15;;;;;;;2.00;0.98;;;;;;;;;;5076170;28;20020;-62
2021/06/25 09:13:40;;;;;;;5.28;1.00;;;;;;;;;;5078054;28;20765;-60
2021/06/25 09:16:20;;;;;;;1.23;0.90;;;;;;;;;;5075881;28;20031;-61
2021/06/25 09:18:56;;;;;;;2.30;1.58;;;;;;;;;;5075620;28;20031;-61
2021/06/25 09:21:21;;;;;;;2.00;1.10;;;;;;;;;;5080670;28;20546;-60
2021/06/25 09:23:46;;;;;;;2.67;1.15;;;;;;;;;;5071537;28;20032;-61
2021/06/25 09:26:12;;;;;;;8.65;3.25;;;;;;;;;;5077810;28;20020;-62
2021/06/25 09:28:39;;;;;;;6.93;6.32;;;;;;;;;;5076697;28;20445;-63
2021/06/25 09:31:14;;;;;;;1.48;1.02;;;;;;;;;;5077242;28;20019;-62
2021/06/25 09:33:43;;;;;;;1.60;0.95;;;;;;;;;;5073567;28;20055;-62
2021/06/25 09:36:18;;;;;;;0.68;0.35;;;;;;;;;;5072558;28;20447;-62
2021/06/25 09:38:43;;;;;;;1.02;0.75;;;;;;;;;;5076260;28;20032;-62
2021/06/25 09:41:15;;;;;;;1.00;0.68;;;;;;;;;;5076859;28;20028;-62
2021/06/25 09:43:41;;;;;;;1.25;0.65;;;;;;;;;;5073038;28;20559;-62
2021/06/25 09:46:06;;;;;;;1.65;1.55;;;;;;;;;;5073564;28;20036;-64
2021/06/25 09:49:07;;;;;;;1.67;0.88;;;;;;;;;;5073543;28;20027;-63
2021/06/25 09:51:33;;;;;;;1.98;1.15;;;;;;;;;;5016205;28;20018;-63
2021/06/25 09:54:01;;;;;;;2.00;1.20;;;;;;;;;;5060149;28;20082;-63
2021/06/25 09:56:26;;;;;;;5.60;1.58;;;;;;;;;;5068157;28;20561;-64
2021/06/25 09:59:20;;;;;;;5.68;1.95;;;;;;;;;;5075392;28;20032;-63
2021/06/25 10:01:47;;;;;;;5.55;1.10;;;;;;;;;;5071283;28;20032;-63
2021/06/25 10:04:12;;;;;;;4.35;1.85;;;;;;;;;;5068878;28;20326;-63
2021/06/25 10:06:37;;;;;;;3.92;2.13;;;;;;;;;;5071477;28;20490;-63
2021/06/25 10:09:04;;;;;;;2.53;0.98;;;;;;;;;;5070655;28;20109;-63
2021/06/25 10:11:30;;;;;;;4.18;2.08;;;;;;;;;;5071770;28;20028;-63
2021/06/25 10:13:56;;;;;;;6.15;1.33;;;;;;;;;;5068504;28;20126;-64
2021/06/25 10:16:22;;;;;;;3.08;1.77;;;;;;;;;;5073234;28;20059;-63
2021/06/25 10:18:49;;;;;;;2.67;1.23;;;;;;;;;;5072066;28;20015;-63
2021/06/25 10:21:19;;;;;;;2.20;1.10;;;;;;;;;;5073108;28;20107;-64
2021/06/25 10:23:51;;;;;;;1.33;1.00;;;;;;;;;;5073694;28;20109;-64
2021/06/25 10:26:18;;;;;;;2.63;1.13;;;;;;;;;;5069747;28;20025;-63
2021/06/25 10:28:44;;;;;;;2.55;1.00;;;;;;;;;;5073630;28;20024;-61
2021/06/25 10:31:10;;;;;;;13.52;2.22;;;;;;;;;;5072229;28;20020;-61
2021/06/25 10:33:37;;;;;;;1.30;0.73;;;;;;;;;;5072868;28;20028;-61
2021/06/25 10:36:04;;;;;;;1.42;1.02;;;;;;;;;;5071240;28;20558;-61
2021/06/25 10:38:29;;;;;;;3.25;1.20;;;;;;;;;;5069737;28;20032;-61
2021/06/25 10:40:56;;;;;;;5.40;3.35;;;;;;;;;;5070962;28;20020;-60
2021/06/25 10:43:37;;;;;;;7.03;6.40;;;;;;;;;;5073660;28;20032;-61
2021/06/25 10:46:02;;;;;;;4.65;1.13;;;;;;;;;;5072566;28;20024;-61
2021/06/25 10:48:38;;;;;;;4.40;2.25;;;;;;;;;;5073753;28;20031;-61
2021/06/25 10:51:22;;;;;;;1.02;0.75;;;;;;;;;;5073940;28;20097;-62
2021/06/25 10:54:09;;;;;;;8.25;2.72;;;;;;;;;;5074276;28;20020;-61
2021/06/25 10:56:34;;;;;;;1.33;1.20;;;;;;;;;;5073289;28;20024;-61
2021/06/25 10:59:23;;;;;;;2.17;1.70;;;;;;;;;;5072382;28;20028;-64
2021/06/25 11:01:49;;;;;;;2.35;1.60;;;;;;;;;;5071241;28;20085;-64
2021/06/25 11:04:41;;;;;;;3.97;2.85;;;;;;;;;;5068063;28;20030;-65
2021/06/25 11:07:16;;;;;;;2.80;2.38;;;;;;;;;;5070411;28;20047;-64
2021/06/25 11:09:58;;;;;;;4.75;2.17;;;;;;;;;;5071341;28;20028;-64
2021/06/25 11:12:26;;;;;;;14.10;3.75;;;;;;;;;;5071633;28;20028;-65
2021/06/25 11:14:56;;;;;;;2.08;1.48;;;;;;;;;;5069842;28;20168;-64
2021/06/25 11:17:40;;;;;;;4.57;1.77;;;;;;;;;;5070579;28;20509;-64
2021/06/25 11:20:15;;;;;;;4.25;2.25;;;;;;;;;;5069714;28;20055;-64
2021/06/25 11:22:40;;;;;;;2.38;1.45;;;;;;;;;;5073232;28;20378;-64
2021/06/25 11:25:11;;;;;;;1.60;1.20;;;;;;;;;;5075372;28;20546;-64
2021/06/25 11:27:55;;;;;;;6.32;1.30;;;;;;;;;;5076051;28;20017;-64
2021/06/25 11:30:41;;;;;;;2.65;1.35;;;;;;;;;;5076516;28;20017;-64
2021/06/25 11:33:26;;;;;;;3.35;1.55;;;;;;;;;;5067053;28;20693;-64
2021/06/25 11:35:52;;;;;;;5.82;1.40;;;;;;;;;;5075231;28;20075;-64
2021/06/25 11:38:17;;;;;;;5.13;2.55;;;;;;;;;;5077065;28;20197;-64
2021/06/25 11:40:46;;;;;;;3.72;1.92;;;;;;;;;;5076999;28;20077;-64
2021/06/25 11:43:12;;;;;;;3.17;1.55;;;;;;;;;;5074691;28;20110;-66
2021/06/25 11:45:38;;;;;;;8.75;7.55;;;;;;;;;;5077778;28;20034;-64
2021/06/25 11:48:03;;;;;;;4.75;2.97;;;;;;;;;;5072922;28;20642;-65
2021/06/25 11:50:28;;;;;;;3.70;2.55;;;;;;;;;;5075202;28;20492;-65
2021/06/25 11:52:54;;;;;;;9.95;2.67;;;;;;;;;;5078377;28;20017;-64
2021/06/25 11:55:22;;;;;;;3.22;2.50;;;;;;;;;;5077122;28;20055;-64
2021/06/25 11:57:47;;;;;;;3.40;2.45;;;;;;;;;;5077749;28;20020;-64
2021/06/25 12:00:16;;;;;;;5.68;3.92;;;;;;;;;;5078061;28;20047;-64
2021/06/25 12:02:43;;;;;;;4.75;3.33;;;;;;;;;;5076564;28;20063;-64
2021/06/25 12:05:09;;;;;;;5.93;4.03;;;;;;;;;;5078571;28;20127;-64
2021/06/25 12:07:35;;;;;;;4.45;3.00;;;;;;;;;;5080474;28;20507;-64
2021/06/25 12:10:00;;;;;;;4.38;2.38;;;;;;;;;;5075050;28;20266;-63
2021/06/25 12:12:29;;;;;;;6.13;2.97;;;;;;;;;;5079540;28;20082;-64
2021/06/25 12:14:59;;;;;;;3.45;2.03;;;;;;;;;;5076495;28;20487;-64
2021/06/25 12:17:25;;;;;;;6.18;2.28;;;;;;;;;;5076359;28;20020;-64
2021/06/25 12:20:01;;;;;;;1.98;1.55;;;;;;;;;;5078164;28;20059;-65
2021/06/25 12:22:26;;;;;;;3.05;1.90;;;;;;;;;;5077231;28;20035;-65
2021/06/25 12:24:53;;;;;;;9.88;2.97;;;;;;;;;;5078642;28;20024;-65
2021/06/25 12:27:19;;;;;;;2.08;1.50;;;;;;;;;;5080257;28;20515;-65
2021/06/25 12:29:45;;;;;;;3.20;1.58;;;;;;;;;;5081700;28;20028;-65
2021/06/25 12:32:18;;;;;;;10.13;2.40;;;;;;;;;;5077642;28;20476;-65
2021/06/25 12:34:44;;;;;;;1.25;0.73;;;;;;;;;;5075261;28;20098;-65
2021/06/25 12:37:09;;;;;;;4.55;2.55;;;;;;;;;;5076380;28;20043;-65
2021/06/25 12:39:35;;;;;;;2.75;1.48;;;;;;;;;;5076571;28;20050;-65
2021/06/25 12:42:01;;;;;;;1.92;1.02;;;;;;;;;;5077373;28;20075;-64
2021/06/25 12:44:26;;;;;;;4.07;1.23;;;;;;;;;;5075645;28;20108;-65
2021/06/25 12:47:11;;;;;;;14.38;3.70;;;;;;;;;;5078470;28;20108;-65
2021/06/25 12:49:36;;;;;;;6.88;2.05;;;;;;;;;;5080300;28;20115;-65
2021/06/25 12:52:18;;;;;;;4.53;1.67;;;;;;;;;;5076626;28;20127;-65
2021/06/25 12:54:44;;;;;;;8.75;2.58;;;;;;;;;;5074718;28;20024;-65
2021/06/25 12:57:09;;;;;;;1.48;0.80;;;;;;;;;;5073068;28;20060;-64
2021/06/25 12:59:34;;;;;;;3.15;2.33;;;;;;;;;;5079996;28;20022;-64
2021/06/25 13:02:00;;;;;;;3.55;1.88;;;;;;;;;;5079968;28;20013;-66
2021/06/25 13:04:25;;;;;;;13.70;2.08;;;;;;;;;;5071781;28;20024;-64
2021/06/25 13:07:00;;;;;;;3.03;1.58;;;;;;;;;;5073491;28;20024;-63
2021/06/25 13:09:27;;;;;;;2.28;1.80;;;;;;;;;;5074423;28;20032;-63
2021/06/25 13:11:53;;;;;;;7.70;3.13;;;;;;;;;;5073122;28;20012;-64
2021/06/25 13:14:37;;;;;;;9.43;3.45;;;;;;;;;;5079613;28;20039;-66
2021/06/25 13:17:03;;;;;;;9.80;1.48;;;;;;;;;;5077067;28;20523;-65
2021/06/25 13:19:34;;;;;;;4.50;1.60;;;;;;;;;;5078180;28;20070;-64
2021/06/25 13:21:59;;;;;;;;;;;;;;;;;;5082845;28;20551;-65
2021/06/25 13:24:24;;;;;;;3.57;1.53;;;;;;;;;;5078947;28;19908;-64
2021/06/25 13:26:51;;;;;;;10.87;1.97;;;;;;;;;;5074926;28;20277;-64
2021/06/25 13:29:17;;;;;;;1.63;1.10;;;;;;;;;;5074046;28;20262;-64
2021/06/25 13:32:02;;;;;;;1.92;1.35;;;;;;;;;;5072319;28;20135;-65
2021/06/25 13:34:28;;;;;;;3.35;2.25;;;;;;;;;;5078852;28;20074;-64
2021/06/25 13:36:54;;;;;;;3.50;1.75;;;;;;;;;;5081453;28;20035;-65
2021/06/25 13:39:19;;;;;;;10.18;3.13;;;;;;;;;;5081624;28;20095;-64
2021/06/25 13:41:45;;;;;;;6.22;2.13;;;;;;;;;;5080521;28;20043;-64
2021/06/25 13:44:24;;;;;;;4.38;2.90;;;;;;;;;;5080908;28;20020;-65
2021/06/25 13:46:51;;;;;;;2.85;2.17;;;;;;;;;;5077015;28;20024;-64
2021/06/25 13:49:21;;;;;;;4.47;3.38;;;;;;;;;;5077085;28;20081;-61
2021/06/25 13:51:46;;;;;;;2.42;1.58;;;;;;;;;;5074991;28;20013;-61
2021/06/25 13:54:18;;;;;;;8.85;1.50;;;;;;;;;;5076792;28;20027;-61
2021/06/25 13:56:51;;;;;;;0.85;0.57;;;;;;;;;;5071834;28;20028;-60
2021/06/25 13:59:17;;;;;;;2.88;1.75;;;;;;;;;;5080288;28;20466;-60
2021/06/25 14:01:49;;;;;;;7.82;1.67;;;;;;;;;;5077712;28;20024;-60
2021/06/25 14:04:19;;;;;;;7.15;1.33;;;;;;;;;;5077604;28;20051;-61
2021/06/25 14:06:47;;;;;;;3.28;1.40;;;;;;;;;;5077829;28;20024;-60
2021/06/25 14:09:19;;;;;;;1.70;1.10;;;;;;;;;;5075356;28;20034;-61
2021/06/25 14:11:45;;;;;;;9.43;1.67;;;;;;;;;;5078567;28;20016;-61
2021/06/25 14:14:10;;;;;;;2.17;1.17;;;;;;;;;;5076406;28;20016;-59
2021/06/25 14:16:37;;;;;;;1.60;0.80;;;;;;;;;;5075631;28;20990;-61
2021/06/25 14:19:04;;;;;;;3.35;1.98;;;;;;;;;;5075031;28;20499;-61
2021/06/25 14:21:34;;;;;;;2.88;2.28;;;;;;;;;;5076058;28;20032;-60
2021/06/25 14:24:00;;;;;;;5.05;1.58;;;;;;;;;;5071799;28;20127;-60
2021/06/25 14:26:26;;;;;;;1.98;1.10;;;;;;;;;;5074140;28;20479;-59
2021/06/25 14:28:52;;;;;;;1.48;1.30;;;;;;;;;;5075328;28;20037;-59
2021/06/25 14:31:17;;;;;;;1.70;0.85;;;;;;;;;;5071563;28;20021;-60
2021/06/25 14:33:43;;;;;;;2.40;1.02;;;;;;;;;;5076477;28;20020;-60
2021/06/25 14:36:08;;;;;;;1.10;0.57;;;;;;;;;;5074906;28;20036;-60
2021/06/25 14:38:34;;;;;;;2.55;1.25;;;;;;;;;;5072133;28;20142;-60
2021/06/25 14:40:59;;;;;;;2.25;1.10;;;;;;;;;;5074454;28;20035;-60
2021/06/25 14:43:25;;;;;;;2.80;1.17;;;;;;;;;;5076476;28;20048;-60
2021/06/25 14:45:50;;;;;;;2.67;0.98;;;;;;;;;;5077471;28;20028;-60
2021/06/25 14:48:16;;;;;;;12.45;9.40;;;;;;;;;;5071406;28;20028;-60
2021/06/25 14:50:41;;;;;;;2.75;1.15;;;;;;;;;;5075334;28;20059;-60
2021/06/25 14:53:07;;;;;;;1.30;1.10;;;;;;;;;;5073838;28;20016;-59
2021/06/25 14:55:32;;;;;;;9.70;1.70;;;;;;;;;;5075957;28;20028;-60